Time;durP1;ratioP1;P1;durP2;ratioP2;P2;SDS_P1;SDS_P2;PMS_P1;PMS_P2;Temp;Humidity;BMP_temperature;BMP_pressure;BME280_temperature;BME280_humidity;BME280_pressure;Samples;Min_cycle;Max_cycle;Signal;HPM_P1;HPM_P2
2023/01/27 00:00:51;;;;;;;7.97;5.07;;;1.70;99.90;;;1.36;98.73;101101.19;4990528;28;20215;-65
2023/01/27 00:03:19;;;;;;;3.50;1.90;;;1.70;99.90;;;1.36;98.55;101094.31;4991186;28;20581;-67
2023/01/27 00:05:46;;;;;;;6.22;3.05;;;1.70;99.90;;;1.36;98.45;101094.31;4991974;28;20204;-67
2023/01/27 00:08:14;;;;;;;7.28;3.25;;;1.70;99.90;;;1.38;98.24;101105.41;4992091;28;20238;-67
2023/01/27 00:10:41;;;;;;;6.13;4.10;;;1.70;99.90;;;1.36;97.85;101102.03;4992621;28;20203;-69
2023/01/27 00:13:27;;;;;;;7.32;4.40;;;1.70;99.90;;;1.32;98.10;101097.84;4986638;28;20212;-67
2023/01/27 00:15:54;;;;;;;9.95;4.95;;;1.70;99.90;;;1.30;98.62;101091.91;4992445;28;20208;-66
2023/01/27 00:18:22;;;;;;;5.20;3.55;;;1.70;99.90;;;1.31;98.82;101096.19;4989448;28;20227;-67
2023/01/27 00:26:21;;;;;;;7.72;5.10;;;1.70;99.90;;;1.35;99.09;101090.06;4979621;28;20257;-69
2023/01/27 00:28:48;;;;;;;5.40;3.85;;;1.70;99.90;;;1.37;99.59;101088.28;4990539;28;20223;-66
2023/01/27 00:34:09;;;;;;;2.35;1.77;;;1.70;99.90;;;1.41;99.24;101086.47;4976474;28;20214;-66
2023/01/27 00:36:39;;;;;;;4.40;3.05;;;1.80;99.90;;;1.40;98.76;101072.78;4974362;28;20202;-65
2023/01/27 00:39:08;;;;;;;9.63;5.50;;;1.80;99.90;;;1.40;98.89;101075.38;4990637;28;20223;-65
2023/01/27 00:41:35;;;;;;;9.27;5.05;;;1.80;99.90;;;1.41;98.97;101069.31;4991382;28;20743;-71
2023/01/27 00:44:04;;;;;;;10.57;5.72;;;1.80;99.90;;;1.43;99.21;101076.97;4991727;28;20214;-64
2023/01/27 00:46:32;;;;;;;8.88;4.78;;;1.80;99.90;;;1.48;99.46;101076.00;4991328;28;20227;-64
2023/01/27 00:48:59;;;;;;;7.95;4.97;;;1.80;99.90;;;1.48;99.38;101077.72;4990446;28;20238;-65
2023/01/27 00:51:26;;;;;;;8.40;5.32;;;1.80;99.90;;;1.48;99.64;101070.84;4990454;28;20199;-66
2023/01/27 00:53:52;;;;;;;9.48;5.00;;;1.80;99.90;;;1.48;99.36;101072.56;4989370;28;20203;-65
2023/01/27 00:56:19;;;;;;;8.52;5.82;;;1.80;99.90;;;1.46;99.48;101072.63;4991569;28;20210;-69
2023/01/27 00:58:46;;;;;;;11.35;5.95;;;1.80;99.90;;;1.48;99.50;101072.56;4991342;28;20258;-66
2023/01/27 01:01:15;;;;;;;9.27;5.75;;;1.80;99.90;;;1.47;99.54;101065.72;4993606;28;20195;-65
2023/01/27 01:03:43;;;;;;;10.68;5.95;;;1.80;99.90;;;1.48;99.43;101060.56;4994669;28;20309;-65
2023/01/27 01:06:14;;;;;;;9.60;5.45;;;1.80;99.90;;;1.50;99.48;101068.22;4993916;28;20285;-65
2023/01/27 01:08:41;;;;;;;12.98;6.28;;;1.80;99.90;;;1.51;99.44;101064.78;4994040;28;20234;-65
2023/01/27 01:11:12;;;;;;;8.18;5.10;;;1.90;99.90;;;1.51;99.66;101068.19;4994705;28;20210;-66
2023/01/27 01:13:44;;;;;;;10.10;6.25;;;1.90;99.90;;;1.52;99.91;101072.44;4994337;28;20203;-64
2023/01/27 01:16:18;;;;;;;8.60;5.35;;;1.90;99.90;;;1.55;99.47;101069.78;4994572;28;20202;-65
2023/01/27 01:18:45;;;;;;;7.40;4.50;;;1.90;99.90;;;1.56;99.35;101068.06;4993725;28;20233;-65
2023/01/27 01:21:13;;;;;;;4.55;3.00;;;1.90;99.90;;;1.61;99.16;101075.63;4977805;28;20204;-65
2023/01/27 01:23:43;;;;;;;10.05;5.45;;;1.90;99.90;;;1.59;98.99;101078.25;4993924;28;20262;-68
2023/01/27 01:26:12;;;;;;;3.78;3.33;;;1.90;99.90;;;1.60;98.99;101072.22;4994520;28;20207;-68
2023/01/27 01:28:39;;;;;;;9.70;5.55;;;1.90;99.90;;;1.61;99.41;101071.34;4994805;28;20219;-65
2023/01/27 01:31:10;;;;;;;8.85;5.55;;;2.00;99.90;;;1.63;99.03;101079.00;4994150;28;20209;-68
2023/01/27 01:33:38;;;;;;;9.02;5.10;;;1.90;99.90;;;1.65;99.59;101082.38;4995533;28;20274;-66
2023/01/27 01:36:11;;;;;;;9.27;5.70;;;2.00;99.90;;;1.65;99.27;101077.22;4977400;28;20208;-64
2023/01/27 01:38:39;;;;;;;9.00;5.30;;;2.00;99.90;;;1.62;99.31;101072.19;4976995;28;20242;-68
2023/01/27 01:41:10;;;;;;;10.68;6.00;;;2.00;99.90;;;1.60;99.44;101079.13;4993593;28;20206;-65
2023/01/27 01:43:37;;;;;;;9.75;5.40;;;1.90;99.90;;;1.58;99.76;101078.31;4993743;28;20719;-66
2023/01/27 01:46:07;;;;;;;13.90;6.60;;;1.90;99.90;;;1.57;99.71;101082.59;4993565;28;20285;-67
2023/01/27 01:48:45;;;;;;;10.05;6.10;;;1.90;99.90;;;1.58;99.44;101082.56;4991713;28;20241;-65
2023/01/27 01:51:24;;;;;;;14.10;7.07;;;1.90;99.90;;;1.56;99.88;101079.19;4993990;28;20261;-69
2023/01/27 01:53:57;;;;;;;8.00;4.15;;;1.90;99.90;;;1.56;100.00;101081.75;4992993;28;20198;-67
2023/01/27 01:56:35;;;;;;;9.13;4.55;;;1.90;99.90;;;1.61;99.57;101081.63;4992021;28;20250;-66
2023/01/27 01:59:13;;;;;;;5.45;3.35;;;1.90;99.90;;;1.63;99.67;101085.00;4992863;28;20223;-67
2023/01/27 02:01:40;;;;;;;5.35;3.35;;;2.00;99.90;;;1.65;99.65;101085.81;4993318;28;20199;-66
2023/01/27 02:04:17;;;;;;;6.40;4.07;;;2.00;99.90;;;1.63;98.99;101082.44;4994200;28;20207;-70
2023/01/27 02:07:28;;;;;;;11.60;5.55;;;2.00;99.90;;;1.64;98.81;101070.41;4976245;28;20203;-66
2023/01/27 02:09:57;;;;;;;3.88;1.83;;;2.00;99.90;;;1.68;98.94;101072.00;4991612;28;20227;-66
2023/01/27 02:12:24;;;;;;;4.97;2.65;;;2.00;99.90;;;1.66;99.05;101071.22;4967857;28;20211;-66
2023/01/27 02:14:51;;;;;;;6.00;4.25;;;2.00;99.90;;;1.66;98.44;101068.66;4993519;28;20211;-67
2023/01/27 02:17:18;;;;;;;10.65;5.82;;;2.00;99.90;;;1.64;98.75;101060.13;4986399;28;20226;-66
2023/01/27 02:20:11;;;;;;;11.30;6.78;;;2.00;99.90;;;1.63;99.02;101058.44;4976285;28;20227;-66
2023/01/27 02:22:59;;;;;;;14.70;7.40;;;2.00;99.90;;;1.59;98.78;101062.84;4990179;28;20203;-66
2023/01/27 02:25:44;;;;;;;18.10;8.30;;;1.90;99.90;;;1.57;98.83;101067.19;4993797;28;20207;-66
2023/01/27 02:28:11;;;;;;;12.95;7.00;;;1.90;99.90;;;1.58;98.96;101064.56;4985490;28;20235;-66
2023/01/27 02:30:38;;;;;;;17.20;8.45;;;1.90;99.90;;;1.58;99.09;101061.97;4993394;28;20241;-66
2023/01/27 02:33:13;;;;;;;10.88;5.95;;;1.90;99.90;;;1.60;99.21;101058.53;4992065;28;20716;-66
2023/01/27 02:35:58;;;;;;;9.30;4.53;;;2.00;99.90;;;1.58;98.73;101062.88;4992918;28;20273;-66
2023/01/27 02:38:32;;;;;;;8.88;5.25;;;1.90;99.90;;;1.58;98.72;101060.31;4992635;28;20277;-66
2023/01/27 02:41:09;;;;;;;7.70;4.65;;;1.90;99.90;;;1.56;98.84;101062.91;4975608;28;20215;-67
2023/01/27 02:43:35;;;;;;;5.07;3.90;;;1.90;99.90;;;1.55;98.87;101059.47;4971132;28;20714;-68
2023/01/27 02:46:03;;;;;;;13.45;6.20;;;1.90;99.90;;;1.57;98.41;101067.19;4993146;28;20210;-66
2023/01/27 02:48:30;;;;;;;9.75;5.82;;;1.90;99.90;;;1.56;99.11;101061.19;4975251;28;20337;-65
2023/01/27 02:50:57;;;;;;;12.18;6.30;;;1.90;99.90;;;1.58;98.80;101068.84;4976527;28;20271;-69
2023/01/27 02:53:24;;;;;;;11.60;5.97;;;1.90;99.90;;;1.58;98.82;101065.47;4991709;28;20207;-68
2023/01/27 02:55:50;;;;;;;4.63;3.05;;;1.90;99.90;;;1.60;99.08;101068.81;4991819;28;20259;-66
2023/01/27 02:58:17;;;;;;;11.00;5.80;;;1.90;99.90;;;1.59;98.60;101070.53;4991311;28;20222;-66
2023/01/27 03:00:44;;;;;;;8.48;4.95;;;1.90;99.90;;;1.58;98.97;101069.69;4992028;28;20261;-66
2023/01/27 03:03:12;;;;;;;3.45;3.17;;;1.90;99.90;;;1.62;99.03;101069.63;4992092;28;20714;-66
2023/01/27 03:05:39;;;;;;;13.43;6.75;;;2.00;99.90;;;1.59;98.77;101067.97;4992938;28;20254;-67
2023/01/27 03:08:06;;;;;;;12.02;6.50;;;2.00;99.90;;;1.62;98.93;101077.34;4991239;28;20690;-66
2023/01/27 03:10:33;;;;;;;11.38;5.90;;;1.90;99.90;;;1.59;99.11;101078.25;4992876;28;20258;-67
2023/01/27 03:13:00;;;;;;;9.65;5.65;;;1.90;99.90;;;1.58;99.33;101068.03;4991406;28;20204;-66
2023/01/27 03:18:12;;;;;;;10.65;5.38;;;1.90;99.90;;;1.60;99.41;101071.41;4992381;28;20259;-66
2023/01/27 03:20:44;;;;;;;10.77;6.00;;;2.00;99.90;;;1.59;99.66;101078.25;4991324;28;20203;-67
2023/01/27 03:23:13;;;;;;;9.98;5.18;;;1.90;99.90;;;1.59;99.63;101078.25;4973350;28;20302;-66
2023/01/27 03:25:45;;;;;;;8.82;5.65;;;1.90;99.90;;;1.58;99.94;101077.41;4962654;28;20675;-66
2023/01/27 03:28:13;;;;;;;8.18;5.53;;;1.90;99.90;;;1.58;99.54;101075.75;4991502;28;20235;-67
2023/01/27 03:30:41;;;;;;;9.40;5.68;;;1.90;99.90;;;1.61;99.93;101080.78;4974948;28;20230;-66
2023/01/27 03:33:08;;;;;;;9.25;5.45;;;1.90;99.90;;;1.62;99.58;101072.19;4990695;28;20216;-66
2023/01/27 03:35:47;;;;;;;12.35;6.57;;;2.00;99.90;;;1.60;99.52;101074.78;4991153;28;20199;-67
2023/01/27 03:46:34;;;;;;;14.30;7.38;;;1.80;99.90;;;1.41;100.00;101077.03;4991819;28;20208;-67
2023/01/27 03:49:01;;;;;;;9.55;5.22;;;1.80;99.90;;;1.43;100.00;101082.97;4991224;28;20579;-67
2023/01/27 03:51:28;;;;;;;13.15;7.05;;;1.80;99.90;;;1.42;100.00;101083.88;4992095;28;20207;-67
2023/01/27 03:53:55;;;;;;;12.23;6.30;;;1.80;99.90;;;1.40;100.00;101077.94;4990710;28;20203;-70
2023/01/27 03:56:22;;;;;;;14.18;6.30;;;1.80;99.90;;;1.42;100.00;101083.88;4990428;28;20206;-67
2023/01/27 03:58:49;;;;;;;14.52;7.35;;;1.80;99.90;;;1.43;100.00;101082.13;4991373;28;20307;-66
2023/01/27 04:01:23;;;;;;;19.48;9.77;;;1.80;99.90;;;1.43;100.00;101084.69;4974104;28;20685;-66
2023/01/27 04:09:39;;;;;;;19.77;9.05;;;1.80;99.90;;;1.41;100.00;101100.19;4940722;28;20262;-67
2023/01/27 04:12:06;;;;;;;21.63;9.38;;;1.80;99.90;;;1.38;100.00;101097.72;4990864;28;20204;-69
2023/01/27 04:14:40;;;;;;;17.42;8.32;;;1.70;99.90;;;1.39;100.00;101095.94;4992809;28;20199;-66
2023/01/27 04:17:16;;;;;;;13.20;6.18;;;1.70;99.90;;;1.39;100.00;101106.25;4969893;28;20196;-68
2023/01/27 04:19:43;;;;;;;10.98;6.03;;;1.70;99.90;;;1.40;100.00;101101.06;4989013;28;20223;-65
2023/01/27 04:22:12;;;;;;;8.20;4.60;;;1.70;99.90;;;1.42;100.00;101096.75;4989800;28;20207;-66
2023/01/27 04:24:39;;;;;;;11.30;5.53;;;1.70;99.90;;;1.47;100.00;101094.88;4989937;28;20295;-65
2023/01/27 04:27:12;;;;;;;11.98;5.95;;;1.80;99.90;;;1.53;100.00;101104.97;4990446;28;20196;-68
2023/01/27 04:29:41;;;;;;;3.90;2.47;;;1.80;99.90;;;1.60;100.00;101099.69;4990481;28;20227;-65
2023/01/27 04:32:10;;;;;;;14.32;7.47;;;1.90;99.90;;;1.58;100.00;101100.56;4991331;28;20199;-65
2023/01/27 04:34:38;;;;;;;16.73;8.50;;;1.90;99.90;;;1.55;100.00;101098.06;4990358;28;20258;-66
2023/01/27 04:37:07;;;;;;;9.40;5.90;;;1.90;99.90;;;1.56;100.00;101098.91;4991765;28;20210;-66
2023/01/27 04:39:34;;;;;;;11.32;6.35;;;1.90;99.90;;;1.58;100.00;101097.13;4973016;28;20227;-66
2023/01/27 04:42:01;;;;;;;16.42;7.35;;;1.90;99.90;;;1.60;100.00;101104.84;4990535;28;20199;-66
2023/01/27 04:44:28;;;;;;;14.52;6.85;;;1.90;99.90;;;1.58;100.00;101106.59;4989879;28;20319;-66
2023/01/27 04:46:54;;;;;;;12.35;5.97;;;1.90;99.90;;;1.58;100.00;101112.56;4990094;28;20211;-66
2023/01/27 04:49:22;;;;;;;8.07;3.75;;;1.90;99.90;;;1.60;100.00;101107.41;4990489;28;20223;-65
2023/01/27 04:51:49;;;;;;;13.43;7.00;;;1.90;99.90;;;1.60;100.00;101109.97;4989676;28;20237;-67
2023/01/27 04:54:16;;;;;;;11.77;6.32;;;1.90;99.90;;;1.63;100.00;101109.88;4989501;28;20577;-67
2023/01/27 04:56:56;;;;;;;2.55;1.85;;;2.00;99.90;;;1.66;100.00;101107.22;4989903;28;20195;-68
2023/01/27 04:59:23;;;;;;;5.95;3.05;;;2.00;99.90;;;1.68;100.00;101103.72;4972257;28;20250;-66
2023/01/27 05:01:50;;;;;;;4.40;2.65;;;2.00;99.90;;;1.69;100.00;101096.84;4991441;28;20432;-67
2023/01/27 05:04:18;;;;;;;3.88;2.55;;;2.00;99.90;;;1.74;100.00;101110.41;4990604;28;20204;-68
2023/01/27 05:06:44;;;;;;;10.20;5.68;;;2.10;99.90;;;1.74;100.00;101113.00;4990877;28;20199;-66
2023/01/27 05:09:11;;;;;;;11.52;5.10;;;2.10;99.90;;;1.75;100.00;101117.25;4989992;28;20712;-67
2023/01/27 05:11:38;;;;;;;6.20;3.42;;;2.10;99.90;;;1.77;100.00;101118.06;4990022;28;20203;-65
2023/01/27 05:14:05;;;;;;;6.18;3.13;;;2.10;99.90;;;1.75;100.00;101118.09;4990693;28;20202;-66
2023/01/27 05:16:32;;;;;;;3.65;2.38;;;2.10;99.90;;;1.79;100.00;101121.44;4990204;28;20265;-66
2023/01/27 05:18:59;;;;;;;7.63;3.75;;;2.10;99.90;;;1.75;100.00;101118.09;4988553;28;20237;-69
2023/01/27 05:21:29;;;;;;;8.13;5.55;;;2.10;99.90;;;1.76;100.00;101119.78;4986458;28;20210;-64
2023/01/27 05:23:56;;;;;;;13.63;5.63;;;2.10;99.90;;;1.76;100.00;101106.94;4984281;28;20211;-67
2023/01/27 05:26:26;;;;;;;10.48;5.75;;;2.10;99.90;;;1.77;100.00;101113.75;4993671;28;20585;-68
2023/01/27 05:28:57;;;;;;;14.77;7.72;;;2.10;99.90;;;1.74;100.00;101119.00;4989033;28;20306;-67
2023/01/27 05:31:30;;;;;;;14.73;7.43;;;2.10;99.90;;;1.70;100.00;101117.41;4990351;28;20219;-66
2023/01/27 05:33:59;;;;;;;12.20;6.57;;;2.10;99.90;;;1.69;100.00;101125.13;4971977;28;20204;-68
2023/01/27 05:36:27;;;;;;;17.02;7.05;;;2.00;99.90;;;1.71;100.00;101123.34;4973101;28;20219;-67
2023/01/27 05:38:55;;;;;;;15.43;7.32;;;2.00;99.90;;;1.69;100.00;101122.56;4990274;28;20770;-65
2023/01/27 05:41:22;;;;;;;10.70;5.38;;;2.00;99.90;;;1.69;100.00;101123.41;4990024;28;20226;-66
2023/01/27 05:43:54;;;;;;;17.00;7.25;;;2.10;99.90;;;1.66;100.00;101115.78;4988969;28;20224;-68
2023/01/27 05:46:32;;;;;;;7.43;4.53;;;2.00;99.90;;;1.68;100.00;101114.03;4970847;28;20200;-70
2023/01/27 05:49:04;;;;;;;11.30;6.13;;;2.00;99.90;;;1.70;100.00;101124.25;4989827;28;20223;-65
2023/01/27 05:51:38;;;;;;;12.20;5.85;;;2.00;99.90;;;1.73;100.00;101126.72;4992797;28;20219;-66
2023/01/27 05:54:06;;;;;;;10.95;6.95;;;2.10;99.90;;;1.70;100.00;101134.56;4993536;28;20709;-71
2023/01/27 05:56:33;;;;;;;10.93;6.20;;;2.00;99.90;;;1.68;100.00;101137.19;4993377;28;20618;-65
2023/01/27 05:59:00;;;;;;;7.88;5.07;;;2.00;99.90;;;1.68;100.00;101138.91;4993112;28;20230;-68
2023/01/27 06:01:30;;;;;;;11.48;6.22;;;2.00;99.90;;;1.70;100.00;101140.53;4975714;28;20238;-65
2023/01/27 06:03:58;;;;;;;10.93;5.68;;;2.00;99.90;;;1.73;100.00;101130.16;4993474;28;20663;-66
2023/01/27 06:06:28;;;;;;;19.77;8.00;;;2.10;99.90;;;1.75;100.00;101142.97;4993301;28;20653;-65
2023/01/27 06:08:55;;;;;;;11.43;5.75;;;2.10;99.90;;;1.73;100.00;101134.44;4993833;28;20234;-65
2023/01/27 06:11:23;;;;;;;13.82;5.63;;;2.10;99.90;;;1.70;100.00;101139.69;4993439;28;20239;-65
2023/01/27 06:13:51;;;;;;;11.25;5.25;;;2.00;99.90;;;1.72;100.00;101140.50;4994466;28;20207;-66
2023/01/27 06:16:21;;;;;;;8.32;3.78;;;2.00;99.90;;;1.75;100.00;101143.81;4993645;28;20210;-67
2023/01/27 06:18:48;;;;;;;10.65;5.78;;;2.00;99.90;;;1.78;100.00;101142.88;4993416;28;20699;-65
2023/01/27 06:21:16;;;;;;;8.52;5.07;;;2.10;99.90;;;1.81;100.00;101161.66;4992432;28;20298;-67
2023/01/27 06:23:43;;;;;;;13.73;5.97;;;2.10;99.90;;;1.83;100.00;101141.03;4992695;28;20210;-66
2023/01/27 06:26:15;;;;;;;14.00;7.15;;;2.20;99.90;;;1.83;99.78;101130.75;4993416;28;20645;-68
2023/01/27 06:28:42;;;;;;;17.35;6.30;;;2.20;99.90;;;1.81;99.97;101135.09;4993277;28;20270;-65
2023/01/27 06:31:17;;;;;;;14.82;6.65;;;2.10;99.90;;;1.80;99.48;101138.53;4974921;28;20593;-66
2023/01/27 06:33:44;;;;;;;14.32;7.00;;;2.20;99.90;;;1.78;100.00;101140.31;4976837;28;20734;-69
2023/01/27 06:36:14;;;;;;;12.77;5.65;;;2.10;99.90;;;1.77;100.00;101143.78;4992288;28;20203;-68
2023/01/27 06:38:42;;;;;;;11.82;6.22;;;2.10;99.90;;;1.79;100.00;101147.16;4991801;28;20311;-66
2023/01/27 06:41:09;;;;;;;12.90;6.53;;;2.10;99.90;;;1.80;100.00;101149.69;4974971;28;20214;-68
2023/01/27 06:43:36;;;;;;;10.23;6.30;;;2.10;99.90;;;1.80;100.00;101149.69;4992595;28;20282;-66
2023/01/27 06:46:03;;;;;;;11.23;6.22;;;2.10;99.90;;;1.80;100.00;101161.69;4974827;28;20223;-67
2023/01/27 06:48:32;;;;;;;7.45;4.60;;;2.10;99.90;;;1.78;100.00;101161.75;4992825;28;20231;-66
2023/01/27 06:50:59;;;;;;;9.52;5.97;;;2.10;99.90;;;1.81;100.00;101150.53;4991027;28;20283;-66
2023/01/27 06:53:26;;;;;;;14.20;5.90;;;2.10;99.90;;;1.81;100.00;101156.50;4993008;28;20200;-67
2023/01/27 06:55:58;;;;;;;8.68;4.35;;;2.10;99.90;;;1.83;100.00;101154.72;4990907;28;20207;-64
2023/01/27 06:58:26;;;;;;;10.05;5.78;;;2.20;99.90;;;1.86;100.00;101152.09;4992336;28;20269;-66
2023/01/27 07:00:54;;;;;;;9.55;4.90;;;2.20;99.90;;;1.89;100.00;101154.59;4992022;28;20218;-68
2023/01/27 07:03:21;;;;;;;8.23;4.22;;;2.20;99.90;;;1.90;100.00;101155.41;4993133;28;20215;-69
2023/01/27 07:05:48;;;;;;;9.27;5.15;;;2.20;99.90;;;1.88;100.00;101165.75;4991486;28;20235;-65
2023/01/27 07:08:15;;;;;;;14.50;4.80;;;2.20;99.90;;;1.87;100.00;101171.78;4992630;28;20609;-71
2023/01/27 07:10:42;;;;;;;11.85;5.93;;;2.20;99.90;;;1.87;99.96;101181.25;4990712;28;20224;-67
2023/01/27 07:13:12;;;;;;;12.60;6.25;;;2.20;99.90;;;1.92;99.97;101184.50;4991881;28;20227;-69
2023/01/27 07:15:39;;;;;;;11.55;5.85;;;2.20;99.90;;;1.93;99.68;101188.78;4991913;28;20207;-67
2023/01/27 07:18:06;;;;;;;9.15;6.43;;;2.30;99.90;;;1.93;99.36;101197.34;4990304;28;20238;-65
2023/01/27 07:20:33;;;;;;;10.38;5.97;;;2.20;99.90;;;1.94;99.01;101187.91;4990900;28;20222;-71
2023/01/27 07:23:03;;;;;;;9.25;5.47;;;2.30;99.90;;;1.90;99.06;101197.44;4990761;28;20215;-68
2023/01/27 07:25:33;;;;;;;13.38;6.75;;;2.20;99.90;;;1.87;99.34;101194.09;4991987;28;20200;-67
2023/01/27 07:28:01;;;;;;;7.22;4.60;;;2.20;99.90;;;1.87;99.25;101197.53;4992205;28;20226;-68
2023/01/27 07:30:28;;;;;;;10.77;5.40;;;2.20;99.90;;;1.87;99.52;101196.69;4992043;28;20226;-66
2023/01/27 07:33:06;;;;;;;10.10;4.70;;;2.20;99.90;;;1.87;99.59;101206.97;4974211;28;20199;-71
2023/01/27 07:35:35;;;;;;;11.20;5.72;;;2.20;99.90;;;1.89;99.02;101206.06;4992324;28;20610;-66
2023/01/27 07:38:06;;;;;;;4.30;2.35;;;2.20;99.90;;;1.94;99.06;101208.50;4973562;28;20258;-65
2023/01/27 07:40:33;;;;;;;8.93;5.25;;;2.20;99.90;;;1.96;98.67;101214.44;4992265;28;20211;-67
2023/01/27 07:43:01;;;;;;;4.05;2.72;;;2.30;99.90;;;1.97;98.92;101222.13;4991222;28;20695;-67
2023/01/27 07:45:29;;;;;;;6.43;4.55;;;2.30;99.90;;;2.04;97.77;101220.22;4991960;28;20207;-66
2023/01/27 07:48:05;;;;;;;7.47;4.45;;;2.30;99.90;;;2.10;96.87;101225.19;4976814;28;20228;-66
2023/01/27 07:50:34;;;;;;;9.00;5.30;;;2.40;99.90;;;2.13;96.26;101220.78;4989955;28;20215;-69
2023/01/27 07:53:03;;;;;;;7.22;5.15;;;2.40;99.90;;;2.18;95.30;101228.41;4989351;28;20204;-66
2023/01/27 07:55:32;;;;;;;4.97;3.97;;;2.50;99.90;;;2.20;94.95;101224.91;4983547;28;20199;-68
2023/01/27 07:57:59;;;;;;;9.10;5.35;;;2.50;99.90;;;2.27;94.44;101225.56;4990497;28;20868;-63
2023/01/27 08:00:27;;;;;;;10.27;5.00;;;2.60;99.90;;;2.26;94.39;101227.28;4992626;28;20261;-66
2023/01/27 08:02:55;;;;;;;4.90;3.40;;;2.60;99.90;;;2.30;94.86;101230.59;4991530;28;20211;-67
2023/01/27 08:05:23;;;;;;;9.13;5.32;;;2.60;99.90;;;2.31;94.22;101227.16;4992229;28;20207;-68
2023/01/27 08:07:50;;;;;;;4.50;3.78;;;2.60;99.90;;;2.33;93.99;101228.81;4984132;28;20254;-66
2023/01/27 08:10:17;;;;;;;8.77;5.25;;;2.70;99.90;;;2.38;94.20;101241.56;4972959;28;20207;-66
2023/01/27 08:12:45;;;;;;;3.40;3.10;;;2.70;99.90;;;2.36;93.31;101245.91;4991463;28;20215;-68
2023/01/27 08:15:13;;;;;;;8.80;5.20;;;2.70;99.90;;;2.36;92.76;101238.19;4990561;28;20206;-66
2023/01/27 08:17:40;;;;;;;5.55;3.50;;;2.70;99.90;;;2.39;92.47;101243.22;4990384;28;20622;-66
2023/01/27 08:20:08;;;;;;;2.17;1.42;;;2.70;99.90;;;2.48;91.32;101232.66;4991361;28;20192;-67
2023/01/27 08:22:35;;;;;;;10.00;4.53;;;2.80;99.90;;;2.55;91.16;101239.34;4990121;28;20199;-67
2023/01/27 08:25:02;;;;;;;3.83;2.85;;;2.90;99.90;;;2.68;90.58;101247.53;4990638;28;20691;-66
2023/01/27 08:27:29;;;;;;;7.68;4.20;;;3.00;99.90;;;2.83;90.22;101237.59;4990053;28;20577;-68
2023/01/27 08:29:56;;;;;;;6.93;4.40;;;3.10;99.90;;;2.98;89.41;101238.88;4974065;28;20199;-66
2023/01/27 08:32:22;;;;;;;7.22;5.22;;;3.30;99.90;;;3.19;88.31;101235.63;4990788;28;20223;-66
2023/01/27 08:34:49;;;;;;;4.90;3.15;;;3.50;99.90;;;3.56;88.24;101237.81;4991884;28;20218;-66
2023/01/27 08:37:16;;;;;;;4.07;2.45;;;3.80;99.90;;;5.10;84.43;101242.44;4989524;28;20210;-66
2023/01/27 08:39:43;;;;;;;5.20;3.85;;;5.20;99.90;;;7.33;73.74;101242.81;4991934;28;20262;-70
2023/01/27 08:42:10;;;;;;;7.80;5.07;;;7.40;99.90;;;9.90;65.83;101257.41;4990189;28;20203;-68
2023/01/27 08:44:37;;;;;;;6.27;3.03;;;10.10;99.90;;;11.39;57.36;101249.75;4990252;28;21206;-68
2023/01/27 08:47:04;;;;;;;3.57;2.80;;;12.00;99.90;;;10.93;54.84;101257.94;4990003;28;20696;-67
2023/01/27 08:49:31;;;;;;;4.47;3.90;;;11.80;99.20;;;9.99;57.23;101256.84;4984369;28;20684;-69
2023/01/27 08:51:58;;;;;;;8.13;5.30;;;10.80;99.90;;;8.94;60.40;101256.88;4969354;28;20669;-68
2023/01/27 08:54:25;;;;;;;8.87;5.07;;;9.70;99.90;;;8.02;62.55;101261.81;4973575;28;20724;-68
2023/01/27 08:56:52;;;;;;;9.17;5.40;;;8.70;99.90;;;7.17;65.38;101257.44;4984164;28;20646;-68
2023/01/27 08:59:18;;;;;;;8.07;4.53;;;7.90;99.90;;;6.51;68.09;101258.84;4972818;28;20657;-65
2023/01/27 09:01:45;;;;;;;12.93;4.50;;;7.20;99.90;;;5.97;70.36;101259.50;4989243;28;20638;-69
2023/01/27 09:04:12;;;;;;;3.10;2.80;;;6.60;99.90;;;5.50;71.45;101256.31;4989990;28;20642;-68
2023/01/27 09:06:39;;;;;;;2.57;2.20;;;6.10;99.90;;;5.09;73.16;101261.47;4990388;28;20650;-66
2023/01/27 09:09:08;;;;;;;3.10;2.77;;;5.60;99.90;;;4.81;75.28;101266.03;4969735;28;20666;-70
2023/01/27 09:11:41;;;;;;;7.53;5.20;;;5.30;99.90;;;4.51;76.93;101268.88;4990505;28;20658;-69
2023/01/27 09:14:10;;;;;;;9.93;5.23;;;5.00;99.90;;;4.32;77.88;101278.16;4990022;28;20637;-66
2023/01/27 09:16:37;;;;;;;8.20;5.23;;;4.80;99.90;;;4.21;79.25;101277.72;4991094;28;20633;-67
2023/01/27 09:19:04;;;;;;;7.93;5.20;;;4.60;99.90;;;4.11;80.15;101278.91;4996914;28;20658;-66
2023/01/27 09:21:31;;;;;;;6.82;4.40;;;4.50;99.90;;;3.98;80.51;101277.69;4983416;28;20207;-66
2023/01/27 09:23:58;;;;;;;9.98;5.10;;;4.40;99.90;;;3.90;81.84;101275.34;4993559;28;20203;-66
2023/01/27 09:26:25;;;;;;;7.35;4.65;;;4.30;99.90;;;3.84;81.38;101275.56;4993468;28;20261;-67
2023/01/27 09:28:52;;;;;;;5.85;4.70;;;4.20;99.90;;;3.80;81.71;101273.13;4993741;28;20231;-67
2023/01/27 09:31:19;;;;;;;5.22;3.60;;;4.10;99.90;;;3.82;82.95;101281.66;4993410;28;20223;-66
2023/01/27 09:33:46;;;;;;;6.10;3.15;;;4.10;99.90;;;3.85;82.89;101286.75;4993099;28;20207;-66
2023/01/27 09:36:18;;;;;;;8.13;5.07;;;4.20;99.90;;;3.84;82.49;101285.03;4993860;28;20196;-68
2023/01/27 09:39:05;;;;;;;4.78;4.03;;;4.20;99.90;;;3.82;82.52;101287.69;4975353;28;20227;-68
2023/01/27 09:41:50;;;;;;;7.93;3.92;;;4.20;99.90;;;3.83;83.27;101284.19;4992173;28;20679;-70
2023/01/27 09:44:51;;;;;;;7.15;4.55;;;4.20;99.90;;;3.83;82.85;101291.13;4991384;28;20203;-66
2023/01/27 09:47:40;;;;;;;8.95;4.40;;;4.10;99.90;;;3.81;82.22;101296.31;4991996;28;20278;-67
2023/01/27 09:50:54;;;;;;;6.25;4.53;;;4.10;99.90;;;3.76;82.21;101294.78;4974342;28;20203;-69
2023/01/27 09:53:47;;;;;;;8.40;4.53;;;4.10;99.90;;;3.65;82.39;101300.31;4970940;28;20214;-70
2023/01/27 09:56:32;;;;;;;10.85;4.00;;;4.00;99.90;;;3.57;83.32;101304.88;4974644;28;20212;-66
2023/01/27 09:59:50;;;;;;;9.30;3.85;;;3.90;99.90;;;3.51;84.07;101304.22;4977756;28;20219;-66
2023/01/27 10:02:39;;;;;;;2.92;2.05;;;3.90;99.90;;;3.49;84.32;101303.44;4955368;28;20211;-67
2023/01/27 10:05:51;;;;;;;6.03;4.93;;;3.80;99.90;;;3.49;85.48;101296.53;4976447;28;20188;-66
2023/01/27 10:08:41;;;;;;;5.93;3.58;;;3.80;99.90;;;3.54;85.61;101301.53;4973532;28;20727;-66
2023/01/27 10:11:52;;;;;;;4.22;3.67;;;3.80;99.90;;;3.49;85.16;101301.69;4990941;28;20226;-68
2023/01/27 10:14:49;;;;;;;8.93;5.20;;;3.80;99.90;;;3.48;84.43;101297.44;4993320;28;20199;-66
2023/01/27 10:17:53;;;;;;;6.20;4.15;;;3.80;99.90;;;3.48;84.37;101299.16;4993863;28;20207;-66
2023/01/27 10:20:59;;;;;;;7.30;4.88;;;3.80;99.90;;;3.47;84.79;101290.56;4993030;28;20574;-65
2023/01/27 10:23:50;;;;;;;8.55;4.65;;;3.80;99.90;;;3.48;84.81;101294.00;4992969;28;20203;-65
2023/01/27 10:26:33;;;;;;;4.88;3.67;;;3.80;99.90;;;3.44;84.40;101275.22;4989137;28;20210;-71
2023/01/27 10:29:15;;;;;;;7.45;4.95;;;3.70;99.90;;;3.43;84.43;101283.81;4991839;28;20223;-67
2023/01/27 10:32:27;;;;;;;9.90;3.38;;;3.80;99.90;;;3.45;84.19;101282.03;4988254;28;20933;-66
2023/01/27 10:35:23;;;;;;;7.07;4.88;;;3.80;99.90;;;3.47;83.75;101279.44;4992209;28;20234;-66
2023/01/27 10:38:17;;;;;;;4.82;3.60;;;3.80;99.90;;;3.49;84.10;101275.06;4981916;28;20223;-72
2023/01/27 10:41:05;;;;;;;7.03;4.45;;;3.80;99.90;;;3.46;83.82;101280.31;4982808;28;20196;-67
2023/01/27 10:43:56;;;;;;;6.97;4.72;;;3.80;99.90;;;3.48;84.37;101273.34;4987578;28;20714;-66
2023/01/27 10:47:04;;;;;;;3.92;3.53;;;3.70;99.90;;;3.52;84.89;101262.88;4992261;28;20584;-66
2023/01/27 10:49:38;;;;;;;6.03;4.28;;;3.80;99.90;;;3.61;83.75;101264.31;4984043;28;20251;-66
2023/01/27 10:52:14;;;;;;;5.35;4.20;;;3.90;99.90;;;3.67;83.70;101266.69;4992107;28;20227;-66
2023/01/27 10:55:15;;;;;;;6.05;4.65;;;3.90;99.90;;;3.71;83.65;101268.28;4950902;28;20212;-69
2023/01/27 10:58:00;;;;;;;3.70;2.67;;;4.00;99.90;;;3.72;83.28;101265.66;4969027;28;20212;-70
2023/01/27 11:00:45;;;;;;;6.93;4.07;;;4.00;99.90;;;3.75;83.39;101260.38;4974529;28;20691;-74
2023/01/27 11:03:48;;;;;;;7.55;4.75;;;4.10;99.90;;;3.81;83.55;101264.50;4973309;28;20298;-70
2023/01/27 11:06:29;;;;;;;4.28;3.20;;;4.10;99.90;;;3.86;83.60;101265.19;4991318;28;20204;-67